sensor_id;sensor_type;location;lat;lon;timestamp;temperature;humidity
55828;DHT22;41758;51.992;5.890;2024-02-21T00:02:12;14.10;69.60
55828;DHT22;41758;51.992;5.890;2024-02-21T00:04:37;14.00;69.60
55828;DHT22;41758;51.992;5.890;2024-02-21T00:07:04;14.10;69.70
55828;DHT22;41758;51.992;5.890;2024-02-21T00:09:30;14.10;69.80
55828;DHT22;41758;51.992;5.890;2024-02-21T00:11:56;14.10;69.90
55828;DHT22;41758;51.992;5.890;2024-02-21T00:14:22;14.10;69.90
55828;DHT22;41758;51.992;5.890;2024-02-21T00:16:48;14.10;69.90
55828;DHT22;41758;51.992;5.890;2024-02-21T00:19:14;14.10;69.90
55828;DHT22;41758;51.992;5.890;2024-02-21T00:21:40;14.10;69.90
55828;DHT22;41758;51.992;5.890;2024-02-21T00:24:06;14.10;70.00
55828;DHT22;41758;51.992;5.890;2024-02-21T00:26:32;14.10;69.90
55828;DHT22;41758;51.992;5.890;2024-02-21T00:28:57;14.20;69.70
55828;DHT22;41758;51.992;5.890;2024-02-21T00:31:23;14.10;69.70
55828;DHT22;41758;51.992;5.890;2024-02-21T00:33:49;14.10;69.80
55828;DHT22;41758;51.992;5.890;2024-02-21T00:36:16;14.10;69.90
55828;DHT22;41758;51.992;5.890;2024-02-21T00:38:42;14.10;69.90
55828;DHT22;41758;51.992;5.890;2024-02-21T00:41:07;14.10;70.00
55828;DHT22;41758;51.992;5.890;2024-02-21T00:43:33;14.20;70.10
55828;DHT22;41758;51.992;5.890;2024-02-21T00:45:59;14.20;70.00
55828;DHT22;41758;51.992;5.890;2024-02-21T00:48:25;14.20;70.10
55828;DHT22;41758;51.992;5.890;2024-02-21T00:50:50;14.30;70.00
55828;DHT22;41758;51.992;5.890;2024-02-21T00:53:17;14.30;69.90
55828;DHT22;41758;51.992;5.890;2024-02-21T00:55:43;14.30;69.90
55828;DHT22;41758;51.992;5.890;2024-02-21T00:58:09;14.30;69.80
55828;DHT22;41758;51.992;5.890;2024-02-21T01:00:34;14.30;69.80
55828;DHT22;41758;51.992;5.890;2024-02-21T01:03:00;14.20;69.90
55828;DHT22;41758;51.992;5.890;2024-02-21T01:05:26;14.20;69.70
55828;DHT22;41758;51.992;5.890;2024-02-21T01:07:53;14.20;69.50
55828;DHT22;41758;51.992;5.890;2024-02-21T01:10:19;14.20;69.30
55828;DHT22;41758;51.992;5.890;2024-02-21T01:12:45;14.10;69.40
55828;DHT22;41758;51.992;5.890;2024-02-21T01:15:10;14.10;69.50
55828;DHT22;41758;51.992;5.890;2024-02-21T01:17:37;14.10;69.60
55828;DHT22;41758;51.992;5.890;2024-02-21T01:20:03;14.00;69.50
55828;DHT22;41758;51.992;5.890;2024-02-21T01:22:31;14.10;69.60
55828;DHT22;41758;51.992;5.890;2024-02-21T01:24:56;14.10;69.70
55828;DHT22;41758;51.992;5.890;2024-02-21T01:27:22;14.10;69.90
55828;DHT22;41758;51.992;5.890;2024-02-21T01:29:48;14.10;69.70
55828;DHT22;41758;51.992;5.890;2024-02-21T01:32:15;14.10;69.50
55828;DHT22;41758;51.992;5.890;2024-02-21T01:34:41;14.10;69.50
55828;DHT22;41758;51.992;5.890;2024-02-21T01:37:07;14.10;69.70
55828;DHT22;41758;51.992;5.890;2024-02-21T01:39:33;14.10;69.90
55828;DHT22;41758;51.992;5.890;2024-02-21T01:41:59;14.10;69.90
55828;DHT22;41758;51.992;5.890;2024-02-21T01:44:25;14.10;69.90
55828;DHT22;41758;51.992;5.890;2024-02-21T01:46:52;14.10;70.00
55828;DHT22;41758;51.992;5.890;2024-02-21T01:49:19;14.10;69.90
55828;DHT22;41758;51.992;5.890;2024-02-21T01:51:45;14.10;69.80
55828;DHT22;41758;51.992;5.890;2024-02-21T01:54:13;14.10;69.90
55828;DHT22;41758;51.992;5.890;2024-02-21T01:56:40;14.10;69.90
55828;DHT22;41758;51.992;5.890;2024-02-21T01:59:06;14.10;69.70
55828;DHT22;41758;51.992;5.890;2024-02-21T02:01:31;14.10;69.70
55828;DHT22;41758;51.992;5.890;2024-02-21T02:03:59;14.10;69.80
55828;DHT22;41758;51.992;5.890;2024-02-21T02:06:25;14.10;69.90
55828;DHT22;41758;51.992;5.890;2024-02-21T02:08:51;14.10;69.90
55828;DHT22;41758;51.992;5.890;2024-02-21T02:11:17;14.10;69.80
55828;DHT22;41758;51.992;5.890;2024-02-21T02:13:43;14.10;69.80
55828;DHT22;41758;51.992;5.890;2024-02-21T02:16:08;14.10;69.90
55828;DHT22;41758;51.992;5.890;2024-02-21T02:18:34;14.10;69.80
55828;DHT22;41758;51.992;5.890;2024-02-21T02:21:00;14.10;69.60
55828;DHT22;41758;51.992;5.890;2024-02-21T02:23:29;14.10;69.70
55828;DHT22;41758;51.992;5.890;2024-02-21T02:25:55;14.00;69.90
55828;DHT22;41758;51.992;5.890;2024-02-21T02:28:21;14.10;70.00
55828;DHT22;41758;51.992;5.890;2024-02-21T02:30:48;14.10;70.00
55828;DHT22;41758;51.992;5.890;2024-02-21T02:33:14;14.10;69.90
55828;DHT22;41758;51.992;5.890;2024-02-21T02:35:39;14.10;69.90
55828;DHT22;41758;51.992;5.890;2024-02-21T02:38:05;14.10;69.80
55828;DHT22;41758;51.992;5.890;2024-02-21T02:40:34;14.10;69.90
55828;DHT22;41758;51.992;5.890;2024-02-21T02:43:00;14.10;69.80
55828;DHT22;41758;51.992;5.890;2024-02-21T02:45:26;14.10;69.60
55828;DHT22;41758;51.992;5.890;2024-02-21T02:47:52;14.00;69.70
55828;DHT22;41758;51.992;5.890;2024-02-21T02:50:20;14.00;69.70
55828;DHT22;41758;51.992;5.890;2024-02-21T02:52:46;14.00;69.70
55828;DHT22;41758;51.992;5.890;2024-02-21T02:55:11;14.00;69.80
55828;DHT22;41758;51.992;5.890;2024-02-21T02:57:37;14.00;69.90
55828;DHT22;41758;51.992;5.890;2024-02-21T03:00:04;14.00;69.70
55828;DHT22;41758;51.992;5.890;2024-02-21T03:02:30;14.00;69.70
55828;DHT22;41758;51.992;5.890;2024-02-21T03:04:57;14.00;69.60
55828;DHT22;41758;51.992;5.890;2024-02-21T03:07:24;14.00;69.80
55828;DHT22;41758;51.992;5.890;2024-02-21T03:09:50;14.00;69.90
55828;DHT22;41758;51.992;5.890;2024-02-21T03:12:16;14.00;70.00
55828;DHT22;41758;51.992;5.890;2024-02-21T03:14:50;14.10;70.10
55828;DHT22;41758;51.992;5.890;2024-02-21T03:17:16;14.10;69.90
55828;DHT22;41758;51.992;5.890;2024-02-21T03:19:41;14.10;69.80
55828;DHT22;41758;51.992;5.890;2024-02-21T03:22:07;14.10;69.40
55828;DHT22;41758;51.992;5.890;2024-02-21T03:24:33;14.10;69.60
55828;DHT22;41758;51.992;5.890;2024-02-21T03:26:59;14.00;69.60
55828;DHT22;41758;51.992;5.890;2024-02-21T03:29:25;14.00;69.80
55828;DHT22;41758;51.992;5.890;2024-02-21T03:31:51;14.10;69.90
55828;DHT22;41758;51.992;5.890;2024-02-21T03:34:16;14.10;69.90
55828;DHT22;41758;51.992;5.890;2024-02-21T03:36:42;14.10;69.80
55828;DHT22;41758;51.992;5.890;2024-02-21T03:39:08;14.10;69.90
55828;DHT22;41758;51.992;5.890;2024-02-21T03:41:35;14.10;69.80
55828;DHT22;41758;51.992;5.890;2024-02-21T03:44:01;14.10;69.70
55828;DHT22;41758;51.992;5.890;2024-02-21T03:46:27;14.10;69.80
55828;DHT22;41758;51.992;5.890;2024-02-21T03:48:53;14.10;69.90
55828;DHT22;41758;51.992;5.890;2024-02-21T03:51:19;14.10;70.00
55828;DHT22;41758;51.992;5.890;2024-02-21T03:53:44;14.10;69.80
55828;DHT22;41758;51.992;5.890;2024-02-21T03:56:10;14.10;69.80
55828;DHT22;41758;51.992;5.890;2024-02-21T03:58:36;14.10;69.90
55828;DHT22;41758;51.992;5.890;2024-02-21T04:01:02;14.10;70.00
55828;DHT22;41758;51.992;5.890;2024-02-21T04:03:28;14.10;70.00
55828;DHT22;41758;51.992;5.890;2024-02-21T04:05:54;14.10;69.90
55828;DHT22;41758;51.992;5.890;2024-02-21T04:08:20;14.10;69.90
55828;DHT22;41758;51.992;5.890;2024-02-21T04:10:46;14.10;70.10
55828;DHT22;41758;51.992;5.890;2024-02-21T04:13:12;14.20;69.90
55828;DHT22;41758;51.992;5.890;2024-02-21T04:15:38;14.10;69.70
55828;DHT22;41758;51.992;5.890;2024-02-21T04:18:03;14.10;69.80
55828;DHT22;41758;51.992;5.890;2024-02-21T04:20:29;14.10;70.00
55828;DHT22;41758;51.992;5.890;2024-02-21T04:22:56;14.20;70.00
55828;DHT22;41758;51.992;5.890;2024-02-21T04:25:22;14.10;70.00
55828;DHT22;41758;51.992;5.890;2024-02-21T04:27:47;14.20;70.00
55828;DHT22;41758;51.992;5.890;2024-02-21T04:30:13;14.20;70.10
55828;DHT22;41758;51.992;5.890;2024-02-21T04:32:39;14.20;70.20
55828;DHT22;41758;51.992;5.890;2024-02-21T04:35:06;14.20;70.10
55828;DHT22;41758;51.992;5.890;2024-02-21T04:37:32;14.20;70.00
55828;DHT22;41758;51.992;5.890;2024-02-21T04:39:58;14.30;70.00
55828;DHT22;41758;51.992;5.890;2024-02-21T04:42:24;14.30;70.00
55828;DHT22;41758;51.992;5.890;2024-02-21T04:44:49;14.30;70.00
55828;DHT22;41758;51.992;5.890;2024-02-21T04:47:15;14.30;70.00
55828;DHT22;41758;51.992;5.890;2024-02-21T04:49:40;14.30;70.00
55828;DHT22;41758;51.992;5.890;2024-02-21T04:52:06;14.30;70.00
55828;DHT22;41758;51.992;5.890;2024-02-21T04:54:32;14.30;69.70
55828;DHT22;41758;51.992;5.890;2024-02-21T04:56:57;14.30;69.50
55828;DHT22;41758;51.992;5.890;2024-02-21T04:59:23;14.30;69.50
55828;DHT22;41758;51.992;5.890;2024-02-21T05:01:49;14.20;69.60
55828;DHT22;41758;51.992;5.890;2024-02-21T05:04:14;14.20;69.70
55828;DHT22;41758;51.992;5.890;2024-02-21T05:06:41;14.30;69.80
55828;DHT22;41758;51.992;5.890;2024-02-21T05:09:07;14.30;69.70
55828;DHT22;41758;51.992;5.890;2024-02-21T05:11:36;14.30;69.80
55828;DHT22;41758;51.992;5.890;2024-02-21T05:14:03;14.30;69.90
55828;DHT22;41758;51.992;5.890;2024-02-21T05:16:30;14.30;69.90
55828;DHT22;41758;51.992;5.890;2024-02-21T05:18:56;14.30;69.90
55828;DHT22;41758;51.992;5.890;2024-02-21T05:21:25;14.30;69.80
55828;DHT22;41758;51.992;5.890;2024-02-21T05:23:52;14.30;69.70
55828;DHT22;41758;51.992;5.890;2024-02-21T05:26:25;14.30;69.80
55828;DHT22;41758;51.992;5.890;2024-02-21T05:28:51;14.30;69.80
55828;DHT22;41758;51.992;5.890;2024-02-21T05:31:20;14.30;69.80
55828;DHT22;41758;51.992;5.890;2024-02-21T05:33:46;14.30;69.80
55828;DHT22;41758;51.992;5.890;2024-02-21T05:36:13;14.30;69.60
55828;DHT22;41758;51.992;5.890;2024-02-21T05:38:38;14.30;69.50
55828;DHT22;41758;51.992;5.890;2024-02-21T05:41:04;14.30;69.60
55828;DHT22;41758;51.992;5.890;2024-02-21T05:43:30;14.20;69.60
55828;DHT22;41758;51.992;5.890;2024-02-21T05:45:56;14.20;69.50
55828;DHT22;41758;51.992;5.890;2024-02-21T05:48:22;14.20;69.70
55828;DHT22;41758;51.992;5.890;2024-02-21T05:50:48;14.20;69.60
55828;DHT22;41758;51.992;5.890;2024-02-21T05:53:14;14.20;69.70
55828;DHT22;41758;51.992;5.890;2024-02-21T05:55:40;14.20;69.80
55828;DHT22;41758;51.992;5.890;2024-02-21T05:58:06;14.30;69.80
55828;DHT22;41758;51.992;5.890;2024-02-21T06:00:32;14.30;69.70
55828;DHT22;41758;51.992;5.890;2024-02-21T06:02:58;14.20;69.40
55828;DHT22;41758;51.992;5.890;2024-02-21T06:05:24;14.20;69.60
55828;DHT22;41758;51.992;5.890;2024-02-21T06:07:50;14.20;69.50
55828;DHT22;41758;51.992;5.890;2024-02-21T06:10:16;14.30;69.40
55828;DHT22;41758;51.992;5.890;2024-02-21T06:12:41;14.20;69.10
55828;DHT22;41758;51.992;5.890;2024-02-21T06:15:07;14.10;69.30
55828;DHT22;41758;51.992;5.890;2024-02-21T06:17:33;14.10;69.60
55828;DHT22;41758;51.992;5.890;2024-02-21T06:19:59;14.20;69.70
55828;DHT22;41758;51.992;5.890;2024-02-21T06:22:25;14.20;69.60
55828;DHT22;41758;51.992;5.890;2024-02-21T06:24:50;14.20;69.60
55828;DHT22;41758;51.992;5.890;2024-02-21T06:27:16;14.20;69.60
55828;DHT22;41758;51.992;5.890;2024-02-21T06:29:42;14.20;69.50
55828;DHT22;41758;51.992;5.890;2024-02-21T06:32:08;14.20;69.40
55828;DHT22;41758;51.992;5.890;2024-02-21T06:34:34;14.20;69.20
55828;DHT22;41758;51.992;5.890;2024-02-21T06:36:59;14.20;69.30
55828;DHT22;41758;51.992;5.890;2024-02-21T06:39:25;14.20;69.20
55828;DHT22;41758;51.992;5.890;2024-02-21T06:41:51;14.10;68.70
55828;DHT22;41758;51.992;5.890;2024-02-21T06:44:18;14.10;68.80
55828;DHT22;41758;51.992;5.890;2024-02-21T06:46:44;14.00;68.80
55828;DHT22;41758;51.992;5.890;2024-02-21T06:49:09;14.10;68.90
55828;DHT22;41758;51.992;5.890;2024-02-21T06:51:42;14.10;68.90
55828;DHT22;41758;51.992;5.890;2024-02-21T06:54:08;14.00;68.70
55828;DHT22;41758;51.992;5.890;2024-02-21T06:56:35;14.00;68.50
55828;DHT22;41758;51.992;5.890;2024-02-21T06:59:01;14.00;68.80
55828;DHT22;41758;51.992;5.890;2024-02-21T07:01:29;14.00;69.00
55828;DHT22;41758;51.992;5.890;2024-02-21T07:03:55;14.00;69.00
55828;DHT22;41758;51.992;5.890;2024-02-21T07:06:20;14.10;69.00
55828;DHT22;41758;51.992;5.890;2024-02-21T07:08:46;14.00;68.80
55828;DHT22;41758;51.992;5.890;2024-02-21T07:11:11;14.00;68.90
55828;DHT22;41758;51.992;5.890;2024-02-21T07:13:37;14.00;69.10
55828;DHT22;41758;51.992;5.890;2024-02-21T07:16:03;14.00;68.90
55828;DHT22;41758;51.992;5.890;2024-02-21T07:18:29;14.10;69.10
55828;DHT22;41758;51.992;5.890;2024-02-21T07:20:54;14.10;69.10
55828;DHT22;41758;51.992;5.890;2024-02-21T07:23:21;14.10;68.60
55828;DHT22;41758;51.992;5.890;2024-02-21T07:25:46;14.10;68.50
55828;DHT22;41758;51.992;5.890;2024-02-21T07:28:12;14.10;68.80
55828;DHT22;41758;51.992;5.890;2024-02-21T07:30:39;14.10;68.50
55828;DHT22;41758;51.992;5.890;2024-02-21T07:33:04;14.10;68.60
55828;DHT22;41758;51.992;5.890;2024-02-21T07:35:30;14.10;68.50
55828;DHT22;41758;51.992;5.890;2024-02-21T07:37:56;14.10;68.90
55828;DHT22;41758;51.992;5.890;2024-02-21T07:40:21;14.10;69.00
55828;DHT22;41758;51.992;5.890;2024-02-21T07:42:47;14.10;69.00
55828;DHT22;41758;51.992;5.890;2024-02-21T07:45:13;14.20;69.00
55828;DHT22;41758;51.992;5.890;2024-02-21T07:47:38;14.20;68.80
55828;DHT22;41758;51.992;5.890;2024-02-21T07:50:04;14.20;68.80
55828;DHT22;41758;51.992;5.890;2024-02-21T07:52:31;14.20;68.60
55828;DHT22;41758;51.992;5.890;2024-02-21T07:54:57;14.20;68.40
55828;DHT22;41758;51.992;5.890;2024-02-21T07:57:23;14.20;68.10
55828;DHT22;41758;51.992;5.890;2024-02-21T07:59:48;14.20;68.50
55828;DHT22;41758;51.992;5.890;2024-02-21T08:02:15;14.20;68.30
55828;DHT22;41758;51.992;5.890;2024-02-21T08:04:41;14.20;67.90
55828;DHT22;41758;51.992;5.890;2024-02-21T08:07:07;14.20;68.00
55828;DHT22;41758;51.992;5.890;2024-02-21T08:09:32;14.10;68.20
55828;DHT22;41758;51.992;5.890;2024-02-21T08:11:58;14.20;68.40
55828;DHT22;41758;51.992;5.890;2024-02-21T08:14:24;14.20;68.50
55828;DHT22;41758;51.992;5.890;2024-02-21T08:16:51;14.30;68.10
55828;DHT22;41758;51.992;5.890;2024-02-21T08:19:18;14.30;68.20
55828;DHT22;41758;51.992;5.890;2024-02-21T08:21:44;14.30;68.40
55828;DHT22;41758;51.992;5.890;2024-02-21T08:24:13;14.30;68.20
55828;DHT22;41758;51.992;5.890;2024-02-21T08:26:44;14.30;68.00
55828;DHT22;41758;51.992;5.890;2024-02-21T08:29:12;14.40;68.00
55828;DHT22;41758;51.992;5.890;2024-02-21T08:31:38;14.40;68.10
55828;DHT22;41758;51.992;5.890;2024-02-21T08:34:04;14.40;68.40
55828;DHT22;41758;51.992;5.890;2024-02-21T08:36:30;14.40;68.40
55828;DHT22;41758;51.992;5.890;2024-02-21T08:38:56;14.50;68.10
55828;DHT22;41758;51.992;5.890;2024-02-21T08:41:23;14.60;67.60
55828;DHT22;41758;51.992;5.890;2024-02-21T08:43:50;14.60;67.90
55828;DHT22;41758;51.992;5.890;2024-02-21T08:46:16;14.50;67.70
55828;DHT22;41758;51.992;5.890;2024-02-21T08:48:43;14.50;67.40
55828;DHT22;41758;51.992;5.890;2024-02-21T08:51:09;14.50;67.20
55828;DHT22;41758;51.992;5.890;2024-02-21T08:53:34;14.50;67.30
55828;DHT22;41758;51.992;5.890;2024-02-21T08:56:00;14.60;67.00
55828;DHT22;41758;51.992;5.890;2024-02-21T08:58:26;14.50;67.40
55828;DHT22;41758;51.992;5.890;2024-02-21T09:00:52;14.60;67.20
55828;DHT22;41758;51.992;5.890;2024-02-21T09:03:18;14.60;67.40
55828;DHT22;41758;51.992;5.890;2024-02-21T09:05:46;14.60;67.70
55828;DHT22;41758;51.992;5.890;2024-02-21T09:08:12;14.70;67.10
55828;DHT22;41758;51.992;5.890;2024-02-21T09:10:39;14.70;67.40
55828;DHT22;41758;51.992;5.890;2024-02-21T09:13:04;14.70;67.50
55828;DHT22;41758;51.992;5.890;2024-02-21T09:15:31;14.70;66.50
55828;DHT22;41758;51.992;5.890;2024-02-21T09:17:57;14.70;66.80
55828;DHT22;41758;51.992;5.890;2024-02-21T09:20:22;14.80;66.50
55828;DHT22;41758;51.992;5.890;2024-02-21T09:22:48;14.70;66.10
55828;DHT22;41758;51.992;5.890;2024-02-21T09:25:14;14.70;66.40
55828;DHT22;41758;51.992;5.890;2024-02-21T09:27:40;14.80;67.10
55828;DHT22;41758;51.992;5.890;2024-02-21T09:30:06;14.90;67.80
55828;DHT22;41758;51.992;5.890;2024-02-21T09:32:32;15.10;68.10
55828;DHT22;41758;51.992;5.890;2024-02-21T09:34:58;15.30;67.70
55828;DHT22;41758;51.992;5.890;2024-02-21T09:37:24;15.40;67.40
55828;DHT22;41758;51.992;5.890;2024-02-21T09:39:50;15.50;67.40
55828;DHT22;41758;51.992;5.890;2024-02-21T09:42:20;15.60;67.50
55828;DHT22;41758;51.992;5.890;2024-02-21T09:44:47;15.70;66.50
55828;DHT22;41758;51.992;5.890;2024-02-21T09:47:33;15.70;66.50
55828;DHT22;41758;51.992;5.890;2024-02-21T09:50:02;15.70;66.10
55828;DHT22;41758;51.992;5.890;2024-02-21T09:52:30;15.70;66.50
55828;DHT22;41758;51.992;5.890;2024-02-21T09:54:58;15.80;66.50
55828;DHT22;41758;51.992;5.890;2024-02-21T09:57:24;15.80;66.40
55828;DHT22;41758;51.992;5.890;2024-02-21T09:59:51;15.80;66.60
55828;DHT22;41758;51.992;5.890;2024-02-21T10:02:18;15.80;66.40
55828;DHT22;41758;51.992;5.890;2024-02-21T10:04:43;15.80;66.50
55828;DHT22;41758;51.992;5.890;2024-02-21T10:07:10;15.90;66.70
55828;DHT22;41758;51.992;5.890;2024-02-21T10:09:36;15.90;66.50
55828;DHT22;41758;51.992;5.890;2024-02-21T10:12:09;15.90;66.50
55828;DHT22;41758;51.992;5.890;2024-02-21T10:14:35;15.90;66.50
55828;DHT22;41758;51.992;5.890;2024-02-21T10:17:01;15.90;66.70
55828;DHT22;41758;51.992;5.890;2024-02-21T10:19:28;15.90;66.70
55828;DHT22;41758;51.992;5.890;2024-02-21T10:22:05;15.90;66.80
55828;DHT22;41758;51.992;5.890;2024-02-21T10:24:33;15.90;66.60
55828;DHT22;41758;51.992;5.890;2024-02-21T10:27:05;15.80;66.50
55828;DHT22;41758;51.992;5.890;2024-02-21T10:29:34;15.80;66.50
55828;DHT22;41758;51.992;5.890;2024-02-21T10:32:14;15.80;66.40
55828;DHT22;41758;51.992;5.890;2024-02-21T10:34:41;15.70;66.40
55828;DHT22;41758;51.992;5.890;2024-02-21T10:37:08;15.60;66.10
55828;DHT22;41758;51.992;5.890;2024-02-21T10:39:41;15.50;66.40
55828;DHT22;41758;51.992;5.890;2024-02-21T10:42:07;15.50;66.70
55828;DHT22;41758;51.992;5.890;2024-02-21T10:44:39;15.40;66.60
55828;DHT22;41758;51.992;5.890;2024-02-21T10:47:09;15.40;66.70
55828;DHT22;41758;51.992;5.890;2024-02-21T10:49:39;15.30;66.60
55828;DHT22;41758;51.992;5.890;2024-02-21T10:55:31;15.30;66.70
55828;DHT22;41758;51.992;5.890;2024-02-21T10:57:59;15.20;67.00
55828;DHT22;41758;51.992;5.890;2024-02-21T11:00:26;15.20;67.30
55828;DHT22;41758;51.992;5.890;2024-02-21T11:02:57;15.20;67.40
55828;DHT22;41758;51.992;5.890;2024-02-21T11:05:24;15.20;67.40
55828;DHT22;41758;51.992;5.890;2024-02-21T11:07:50;15.20;67.40
55828;DHT22;41758;51.992;5.890;2024-02-21T11:10:24;15.20;67.50
55828;DHT22;41758;51.992;5.890;2024-02-21T11:12:53;15.20;67.70
55828;DHT22;41758;51.992;5.890;2024-02-21T11:15:25;15.20;67.30
55828;DHT22;41758;51.992;5.890;2024-02-21T11:17:55;15.20;67.50
55828;DHT22;41758;51.992;5.890;2024-02-21T11:20:35;15.30;67.80
55828;DHT22;41758;51.992;5.890;2024-02-21T11:23:00;15.30;67.90
55828;DHT22;41758;51.992;5.890;2024-02-21T11:25:27;15.30;67.60
55828;DHT22;41758;51.992;5.890;2024-02-21T11:28:04;15.30;67.70
55828;DHT22;41758;51.992;5.890;2024-02-21T11:30:31;15.30;67.40
55828;DHT22;41758;51.992;5.890;2024-02-21T11:33:06;15.30;67.30
55828;DHT22;41758;51.992;5.890;2024-02-21T11:35:33;15.30;67.50
55828;DHT22;41758;51.992;5.890;2024-02-21T11:38:13;15.20;67.50
55828;DHT22;41758;51.992;5.890;2024-02-21T11:40:44;15.20;67.40
55828;DHT22;41758;51.992;5.890;2024-02-21T11:43:10;15.20;67.50
55828;DHT22;41758;51.992;5.890;2024-02-21T11:45:36;15.20;67.70
55828;DHT22;41758;51.992;5.890;2024-02-21T11:48:02;15.20;67.60
55828;DHT22;41758;51.992;5.890;2024-02-21T11:50:31;15.10;67.40
55828;DHT22;41758;51.992;5.890;2024-02-21T11:52:57;15.20;67.40
55828;DHT22;41758;51.992;5.890;2024-02-21T11:55:23;15.10;67.40
55828;DHT22;41758;51.992;5.890;2024-02-21T11:57:49;15.10;67.30
55828;DHT22;41758;51.992;5.890;2024-02-21T12:00:19;15.10;67.50
55828;DHT22;41758;51.992;5.890;2024-02-21T12:02:50;15.10;67.70
55828;DHT22;41758;51.992;5.890;2024-02-21T12:05:16;15.10;67.70
55828;DHT22;41758;51.992;5.890;2024-02-21T12:07:42;15.10;67.80
55828;DHT22;41758;51.992;5.890;2024-02-21T12:10:11;15.20;67.60
55828;DHT22;41758;51.992;5.890;2024-02-21T12:12:38;15.20;67.60
55828;DHT22;41758;51.992;5.890;2024-02-21T12:15:05;15.20;67.80
55828;DHT22;41758;51.992;5.890;2024-02-21T12:17:33;15.20;67.90
55828;DHT22;41758;51.992;5.890;2024-02-21T12:20:00;15.30;67.80
55828;DHT22;41758;51.992;5.890;2024-02-21T12:22:26;15.30;68.00
55828;DHT22;41758;51.992;5.890;2024-02-21T12:24:52;15.40;68.00
55828;DHT22;41758;51.992;5.890;2024-02-21T12:27:18;15.50;68.00
55828;DHT22;41758;51.992;5.890;2024-02-21T12:29:44;15.60;68.00
55828;DHT22;41758;51.992;5.890;2024-02-21T12:32:09;15.60;68.10
55828;DHT22;41758;51.992;5.890;2024-02-21T12:34:35;15.70;68.30
55828;DHT22;41758;51.992;5.890;2024-02-21T12:37:02;15.90;68.10
55828;DHT22;41758;51.992;5.890;2024-02-21T12:39:29;16.00;68.00
55828;DHT22;41758;51.992;5.890;2024-02-21T12:41:54;16.00;67.50
55828;DHT22;41758;51.992;5.890;2024-02-21T12:44:22;16.10;67.40
55828;DHT22;41758;51.992;5.890;2024-02-21T12:46:48;16.10;66.60
55828;DHT22;41758;51.992;5.890;2024-02-21T12:49:18;16.10;66.60
55828;DHT22;41758;51.992;5.890;2024-02-21T12:51:44;16.10;66.80
55828;DHT22;41758;51.992;5.890;2024-02-21T12:54:12;16.10;66.60
55828;DHT22;41758;51.992;5.890;2024-02-21T12:56:38;16.20;66.20
55828;DHT22;41758;51.992;5.890;2024-02-21T12:59:05;16.10;66.20
55828;DHT22;41758;51.992;5.890;2024-02-21T13:01:35;16.20;66.40
55828;DHT22;41758;51.992;5.890;2024-02-21T13:04:01;16.10;66.30
55828;DHT22;41758;51.992;5.890;2024-02-21T13:06:27;16.10;66.30
55828;DHT22;41758;51.992;5.890;2024-02-21T13:08:53;16.20;66.40
55828;DHT22;41758;51.992;5.890;2024-02-21T13:11:19;16.20;66.40
55828;DHT22;41758;51.992;5.890;2024-02-21T13:13:45;16.20;66.40
55828;DHT22;41758;51.992;5.890;2024-02-21T13:16:10;16.10;66.10
55828;DHT22;41758;51.992;5.890;2024-02-21T13:18:36;16.10;66.20
55828;DHT22;41758;51.992;5.890;2024-02-21T13:21:04;16.10;66.10
55828;DHT22;41758;51.992;5.890;2024-02-21T13:23:30;16.10;66.20
55828;DHT22;41758;51.992;5.890;2024-02-21T13:25:56;16.10;66.20
55828;DHT22;41758;51.992;5.890;2024-02-21T13:28:21;16.10;66.20
55828;DHT22;41758;51.992;5.890;2024-02-21T13:30:47;16.10;66.20
55828;DHT22;41758;51.992;5.890;2024-02-21T13:33:13;16.20;66.30
55828;DHT22;41758;51.992;5.890;2024-02-21T13:35:39;16.20;66.10
55828;DHT22;41758;51.992;5.890;2024-02-21T13:38:05;16.20;66.00
55828;DHT22;41758;51.992;5.890;2024-02-21T13:40:30;16.20;66.10
55828;DHT22;41758;51.992;5.890;2024-02-21T13:42:56;16.20;65.80
55828;DHT22;41758;51.992;5.890;2024-02-21T13:45:22;16.20;65.80
55828;DHT22;41758;51.992;5.890;2024-02-21T13:47:47;16.20;65.70
55828;DHT22;41758;51.992;5.890;2024-02-21T13:50:14;16.20;65.70
55828;DHT22;41758;51.992;5.890;2024-02-21T13:52:42;16.30;65.50
55828;DHT22;41758;51.992;5.890;2024-02-21T13:55:08;16.30;65.70
55828;DHT22;41758;51.992;5.890;2024-02-21T13:57:37;16.30;65.70
55828;DHT22;41758;51.992;5.890;2024-02-21T14:00:06;16.30;65.80
55828;DHT22;41758;51.992;5.890;2024-02-21T14:02:39;16.30;65.50
55828;DHT22;41758;51.992;5.890;2024-02-21T14:05:05;16.30;65.50
55828;DHT22;41758;51.992;5.890;2024-02-21T14:07:32;16.30;65.50
55828;DHT22;41758;51.992;5.890;2024-02-21T14:09:58;16.30;65.70
55828;DHT22;41758;51.992;5.890;2024-02-21T14:12:24;16.30;65.70
55828;DHT22;41758;51.992;5.890;2024-02-21T14:14:50;16.30;65.70
55828;DHT22;41758;51.992;5.890;2024-02-21T14:17:17;16.30;65.60
55828;DHT22;41758;51.992;5.890;2024-02-21T14:19:43;16.30;65.60
55828;DHT22;41758;51.992;5.890;2024-02-21T14:22:09;16.30;65.80
55828;DHT22;41758;51.992;5.890;2024-02-21T14:24:36;16.30;65.60
55828;DHT22;41758;51.992;5.890;2024-02-21T14:27:02;16.30;65.30
55828;DHT22;41758;51.992;5.890;2024-02-21T14:29:29;16.40;64.90
55828;DHT22;41758;51.992;5.890;2024-02-21T14:31:55;16.40;64.80
55828;DHT22;41758;51.992;5.890;2024-02-21T14:34:20;16.30;64.10
55828;DHT22;41758;51.992;5.890;2024-02-21T14:36:46;16.30;63.40
55828;DHT22;41758;51.992;5.890;2024-02-21T14:39:12;16.30;63.60
55828;DHT22;41758;51.992;5.890;2024-02-21T14:41:37;16.20;63.90
55828;DHT22;41758;51.992;5.890;2024-02-21T14:44:05;16.20;63.30
55828;DHT22;41758;51.992;5.890;2024-02-21T14:46:31;16.20;63.70
55828;DHT22;41758;51.992;5.890;2024-02-21T14:48:57;16.20;62.20
55828;DHT22;41758;51.992;5.890;2024-02-21T14:51:22;16.20;62.60
55828;DHT22;41758;51.992;5.890;2024-02-21T14:53:48;16.20;61.80
55828;DHT22;41758;51.992;5.890;2024-02-21T14:56:14;16.10;60.50
55828;DHT22;41758;51.992;5.890;2024-02-21T14:58:41;16.00;60.60
55828;DHT22;41758;51.992;5.890;2024-02-21T15:01:07;16.10;61.60
55828;DHT22;41758;51.992;5.890;2024-02-21T15:03:33;16.00;61.90
55828;DHT22;41758;51.992;5.890;2024-02-21T15:05:59;16.00;62.00
55828;DHT22;41758;51.992;5.890;2024-02-21T15:08:26;16.00;62.50
55828;DHT22;41758;51.992;5.890;2024-02-21T15:10:53;16.00;61.50
55828;DHT22;41758;51.992;5.890;2024-02-21T15:13:19;15.90;61.60
55828;DHT22;41758;51.992;5.890;2024-02-21T15:15:47;15.90;60.60
55828;DHT22;41758;51.992;5.890;2024-02-21T15:18:14;15.90;61.40
55828;DHT22;41758;51.992;5.890;2024-02-21T15:20:42;15.80;61.90
55828;DHT22;41758;51.992;5.890;2024-02-21T15:23:08;15.80;62.30
55828;DHT22;41758;51.992;5.890;2024-02-21T15:25:34;15.60;62.60
55828;DHT22;41758;51.992;5.890;2024-02-21T15:28:00;15.60;62.80
55828;DHT22;41758;51.992;5.890;2024-02-21T15:30:25;15.60;62.90